Главная страница
METAR-TAF:

METAR-TAF

Аэропорты :

Аэропорт Хуари Бумедьен

Алжир, Алжир

широта: 36-43N, долгота: 003-15E, высота над уровнем моря: 25 м

Текущие метеонаблюдения

Эта сводка был подготовлена 45 минут назад, в 22:00 UTC
Штиль
Температура 10°C
Влажность 87%
Давление 1028 hPa
Видимость 10 км и более
Нет облачности ниже 1500 м, и нет кучево-дождевой облачности

METAR: DAAG 092200Z 00000KT CAVOK 10/08 Q1028

Время: 23:45 (22:45 UTC)

Прогноз

Эта сводка был подготовлена 5 часа и 45 минут назад, в 17:00 UTC
Прогноз действительный с 09-го 18 UTC до 10-го 18 UTC
Ветер 8 Узел от западный
Видимость 10 км и более
Нет облачности ниже 1500 м, и нет кучево-дождевой облачности
Вероятность 30% :
временами
С 09-го 22 UTC до 10-го 06 UTC
Видимость: 4000 м
Рассеянная облачность на высоте 1500 фута
дымка

TAF: DAAG 091700Z 0918/1018 28008KT CAVOK PROB30 TEMPO 0922/1006 4000 BR BKN015

Метеонаблюдения и прогнозы для более 4000 аэропортов (сводки METAR и TAF).

Имеющиеся станции представлены на карте желтыми и красными точками.

Чтобы увидеть название станции, наведите на нее мышь.

Затем щелкните, чтобы увидеть метеонаблюдения и метеопрогнозы.

Управление картой: чтобы увеличить масштаб, щелкните зеленые кнопки с черным крестиком; чтобы уменьшить масштаб, щелкните зеленую кнопку с тире; для просмотра соседних карт щелкайте зеленые стрелки.


METAR-TAF: